createdAt,value
2018-09-24T00:00:11.029Z,9.20
2018-09-24T00:01:10.974Z,9.20
2018-09-24T00:02:11.031Z,9.15
2018-09-24T00:03:11.089Z,9.08
2018-09-24T00:04:11.146Z,8.94
2018-09-24T00:05:11.206Z,9.10
2018-09-24T00:06:11.261Z,9.12
2018-09-24T00:07:11.319Z,9.24
2018-09-24T00:08:11.376Z,9.27
2018-09-24T00:09:11.437Z,9.26
2018-09-24T00:10:11.491Z,9.20
2018-09-24T00:11:11.549Z,9.23
2018-09-24T00:12:11.606Z,9.15
2018-09-24T00:13:11.666Z,9.03
2018-09-24T00:14:11.721Z,9.12
2018-09-24T00:15:11.778Z,9.04
2018-09-24T00:16:11.836Z,9.08
2018-09-24T00:17:11.895Z,9.08
2018-09-24T00:18:11.951Z,9.00
2018-09-24T00:19:12.008Z,9.04
2018-09-24T00:20:12.066Z,9.06
2018-09-24T00:21:12.124Z,9.03
2018-09-24T00:22:12.181Z,9.06
2018-09-24T00:23:12.238Z,9.01
2018-09-24T00:24:12.296Z,8.93
2018-09-24T00:25:12.355Z,9.00
2018-09-24T00:26:12.410Z,8.89
2018-09-24T00:27:12.467Z,8.86
2018-09-24T00:28:12.525Z,8.93
2018-09-24T00:29:12.582Z,8.88
2018-09-24T00:30:12.639Z,8.89
2018-09-24T00:31:12.698Z,8.86
2018-09-24T00:32:13.005Z,8.91
2018-09-24T00:33:12.812Z,8.91
2018-09-24T00:34:12.871Z,8.91
2018-09-24T00:35:12.926Z,8.94
2018-09-24T00:36:12.984Z,8.89
2018-09-24T00:37:13.041Z,8.83
2018-09-24T00:38:13.098Z,8.73
2018-09-24T00:39:13.155Z,8.70
2018-09-24T00:40:13.213Z,8.73
2018-09-24T00:41:13.270Z,8.70
2018-09-24T00:42:13.327Z,8.73
2018-09-24T00:43:13.443Z,8.78
2018-09-24T00:44:13.442Z,8.76
2018-09-24T00:45:13.501Z,8.75
2018-09-24T00:46:13.559Z,8.71
2018-09-24T00:47:13.864Z,8.70
2018-09-24T00:48:13.670Z,8.65
2018-09-24T00:49:13.730Z,8.63
2018-09-24T00:50:13.785Z,8.63
2018-09-24T00:51:13.843Z,8.55
2018-09-24T00:52:13.900Z,8.50
2018-09-24T00:53:13.958Z,8.47
2018-09-24T00:54:14.015Z,8.49
2018-09-24T00:55:14.072Z,8.50
2018-09-24T00:56:14.130Z,8.54
2018-09-24T00:57:14.188Z,8.57
2018-09-24T00:58:14.244Z,8.64
2018-09-24T00:59:14.302Z,8.60
2018-09-24T01:00:14.359Z,8.54
2018-09-24T01:01:14.416Z,8.47
2018-09-24T01:02:14.473Z,8.65
2018-09-24T01:03:14.531Z,8.71
2018-09-24T01:04:14.588Z,8.63
2018-09-24T01:05:14.645Z,8.54
2018-09-24T01:06:14.701Z,8.50
2018-09-24T01:07:15.011Z,8.58
2018-09-24T01:08:14.817Z,8.54
2018-09-24T01:09:14.874Z,8.54
2018-09-24T01:10:14.931Z,8.46
2018-09-24T01:11:14.990Z,8.46
2018-09-24T01:12:15.045Z,8.47
2018-09-24T01:13:15.104Z,8.45
2018-09-24T01:14:15.160Z,8.54
2018-09-24T01:15:15.218Z,8.42
2018-09-24T01:16:15.274Z,8.40
2018-09-24T01:17:15.336Z,8.32
2018-09-24T01:18:15.388Z,8.21
2018-09-24T01:19:15.446Z,8.31
2018-09-24T01:20:15.501Z,8.32
2018-09-24T01:21:15.560Z,8.31
2018-09-24T01:22:15.617Z,8.34
2018-09-24T01:23:15.675Z,8.36
2018-09-24T01:24:15.731Z,8.32
2018-09-24T01:25:15.788Z,8.28
2018-09-24T01:26:15.847Z,8.34
2018-09-24T01:27:15.903Z,8.40
2018-09-24T01:28:15.960Z,8.37
2018-09-24T01:29:16.018Z,8.36
2018-09-24T01:30:16.074Z,8.28
2018-09-24T01:31:16.131Z,8.34
2018-09-24T01:32:16.189Z,8.29
2018-09-24T01:33:16.246Z,8.36
2018-09-24T01:34:16.310Z,8.28
2018-09-24T01:35:16.360Z,8.32
2018-09-24T01:36:16.417Z,8.25
2018-09-24T01:37:16.475Z,8.28
2018-09-24T01:38:16.532Z,8.22
2018-09-24T01:39:16.589Z,8.32
2018-09-24T01:40:16.645Z,8.21
2018-09-24T01:41:16.703Z,8.21
2018-09-24T01:42:16.760Z,8.21
2018-09-24T01:43:16.816Z,8.20
2018-09-24T01:44:16.877Z,8.32
2018-09-24T01:45:16.933Z,8.29
2018-09-24T01:46:16.988Z,8.32
2018-09-24T01:47:17.045Z,8.43
2018-09-24T01:48:17.104Z,8.37
2018-09-24T01:49:17.160Z,8.37
2018-09-24T01:50:17.216Z,8.31
2018-09-24T01:51:17.274Z,8.28
2018-09-24T01:52:17.330Z,8.29
2018-09-24T01:53:17.390Z,8.32
2018-09-24T01:54:17.444Z,8.36
2018-09-24T01:55:17.504Z,8.34
2018-09-24T01:56:17.559Z,8.32
2018-09-24T01:57:17.616Z,8.28
2018-09-24T01:58:17.672Z,8.36
2018-09-24T01:59:17.730Z,8.39
2018-09-24T02:00:17.789Z,8.32
2018-09-24T02:01:17.845Z,8.31
2018-09-24T02:02:17.900Z,8.25
2018-09-24T02:03:17.958Z,8.18
2018-09-24T02:04:18.017Z,8.18
2018-09-24T02:05:18.073Z,8.14
2018-09-24T02:06:18.131Z,8.00
2018-09-24T02:07:18.190Z,8.03
2018-09-24T02:08:18.243Z,8.02
2018-09-24T02:09:18.301Z,7.99
2018-09-24T02:10:18.357Z,8.02
2018-09-24T02:11:18.414Z,7.88
2018-09-24T02:12:18.471Z,7.89
2018-09-24T02:13:18.529Z,7.84
2018-09-24T02:14:18.584Z,7.88
2018-09-24T02:15:18.641Z,7.79
2018-09-24T02:16:18.701Z,8.03
2018-09-24T02:17:18.757Z,7.91
2018-09-24T02:18:18.812Z,7.94
2018-09-24T02:19:18.870Z,7.89
2018-09-24T02:20:18.927Z,7.85
2018-09-24T02:21:18.991Z,7.81
2018-09-24T02:22:19.041Z,7.81
2018-09-24T02:23:19.099Z,7.82
2018-09-24T02:24:19.155Z,7.79
2018-09-24T02:25:19.212Z,7.79
2018-09-24T02:26:19.269Z,7.85
2018-09-24T02:27:19.326Z,7.81
2018-09-24T02:28:19.390Z,7.79
2018-09-24T02:29:19.440Z,7.79
2018-09-24T02:30:19.505Z,7.77
2018-09-24T02:31:19.554Z,7.62
2018-09-24T02:32:19.612Z,7.70
2018-09-24T02:33:19.668Z,7.67
2018-09-24T02:34:19.723Z,7.67
2018-09-24T02:35:19.781Z,7.60
2018-09-24T02:36:19.838Z,7.62
2018-09-24T02:37:19.895Z,7.66
2018-09-24T02:38:19.951Z,7.58
2018-09-24T02:39:20.008Z,7.55
2018-09-24T02:40:20.065Z,7.54
2018-09-24T02:41:20.123Z,7.51
2018-09-24T02:42:20.181Z,7.52
2018-09-24T02:43:20.236Z,7.44
2018-09-24T02:44:20.293Z,7.44
2018-09-24T02:45:20.351Z,7.45
2018-09-24T02:46:20.418Z,7.50
2018-09-24T02:47:20.468Z,7.60
2018-09-24T02:48:20.521Z,7.48
2018-09-24T02:49:20.577Z,7.45
2018-09-24T02:50:20.636Z,7.54
2018-09-24T02:51:20.690Z,7.52
2018-09-24T02:52:20.749Z,7.39
2018-09-24T02:53:20.804Z,7.39
2018-09-24T02:54:20.860Z,7.48
2018-09-24T02:55:20.918Z,7.42
2018-09-24T02:56:20.974Z,7.36
2018-09-24T02:57:21.032Z,7.48
2018-09-24T02:58:21.088Z,7.34
2018-09-24T02:59:21.144Z,7.34
2018-09-24T03:00:21.207Z,7.37
2018-09-24T03:01:21.319Z,7.37
2018-09-24T03:02:21.315Z,7.39
2018-09-24T03:03:21.372Z,7.33
2018-09-24T03:04:21.428Z,7.37
2018-09-24T03:05:21.486Z,7.36
2018-09-24T03:06:21.543Z,7.34
2018-09-24T03:07:21.600Z,7.34
2018-09-24T03:08:21.656Z,7.36
2018-09-24T03:09:21.712Z,7.36
2018-09-24T03:10:21.767Z,7.41
2018-09-24T03:11:21.826Z,7.32
2018-09-24T03:12:21.883Z,7.39
2018-09-24T03:13:21.941Z,7.34
2018-09-24T03:14:21.997Z,7.39
2018-09-24T03:15:22.053Z,7.36
2018-09-24T03:16:22.110Z,7.37
2018-09-24T03:17:22.169Z,7.41
2018-09-24T03:18:22.223Z,7.36
2018-09-24T03:19:22.281Z,7.34
2018-09-24T03:20:22.337Z,7.37
2018-09-24T03:21:22.397Z,7.33
2018-09-24T03:22:22.451Z,7.33
2018-09-24T03:23:22.509Z,7.39
2018-09-24T03:24:22.564Z,7.32
2018-09-24T03:25:22.620Z,7.30
2018-09-24T03:26:22.794Z,7.32
2018-09-24T03:27:22.734Z,7.19
2018-09-24T03:28:22.791Z,7.33
2018-09-24T03:29:22.848Z,7.26
2018-09-24T03:30:22.904Z,7.21
2018-09-24T03:31:22.962Z,7.19
2018-09-24T03:32:23.023Z,7.27
2018-09-24T03:33:23.075Z,7.23
2018-09-24T03:34:23.131Z,7.19
2018-09-24T03:35:23.188Z,7.21
2018-09-24T03:36:23.245Z,7.24
2018-09-24T03:37:23.301Z,7.11
2018-09-24T03:38:23.357Z,7.21
2018-09-24T03:39:23.416Z,7.09
2018-09-24T03:40:23.476Z,7.08
2018-09-24T03:41:23.530Z,7.09
2018-09-24T03:42:23.584Z,7.08
2018-09-24T03:43:23.641Z,7.08
2018-09-24T03:44:23.698Z,7.12
2018-09-24T03:45:23.758Z,7.07
2018-09-24T03:46:23.812Z,7.08
2018-09-24T03:47:23.868Z,7.05
2018-09-24T03:48:23.925Z,7.08
2018-09-24T03:49:23.986Z,7.07
2018-09-24T03:50:24.037Z,7.01
2018-09-24T03:51:24.094Z,7.05
2018-09-24T03:52:24.160Z,6.96
2018-09-24T03:53:24.207Z,6.96
2018-09-24T03:54:24.265Z,6.93
2018-09-24T03:55:24.324Z,6.91
2018-09-24T03:56:24.377Z,6.96
2018-09-24T03:57:24.476Z,6.90
2018-09-24T03:58:24.523Z,6.99
2018-09-24T03:59:24.798Z,6.97
2018-09-24T04:00:24.607Z,6.91
2018-09-24T04:01:24.660Z,7.05
2018-09-24T04:02:24.719Z,7.05
2018-09-24T04:03:24.774Z,7.08
2018-09-24T04:04:24.829Z,7.08
2018-09-24T04:05:24.894Z,7.08
2018-09-24T04:06:24.942Z,7.05
2018-09-24T04:07:25.000Z,7.05
2018-09-24T04:08:25.057Z,7.11
2018-09-24T04:09:25.178Z,7.07
2018-09-24T04:10:25.189Z,7.15
2018-09-24T04:11:25.225Z,7.14
2018-09-24T04:12:25.283Z,7.16
2018-09-24T04:13:25.340Z,7.19
2018-09-24T04:14:25.397Z,7.12
2018-09-24T04:15:25.454Z,7.09
2018-09-24T04:16:25.510Z,7.05
2018-09-24T04:17:25.616Z,6.99
2018-09-24T04:18:25.622Z,6.94
2018-09-24T04:19:25.718Z,6.83
2018-09-24T04:20:25.735Z,6.91
2018-09-24T04:21:25.793Z,6.81
2018-09-24T04:22:25.849Z,6.82
2018-09-24T04:23:25.905Z,6.78
2018-09-24T04:24:25.962Z,6.87
2018-09-24T04:25:26.347Z,6.83
2018-09-24T04:26:26.075Z,6.81
2018-09-24T04:27:26.131Z,6.78
2018-09-24T04:28:26.188Z,6.75
2018-09-24T04:29:26.245Z,6.75
2018-09-24T04:30:26.301Z,6.81
2018-09-24T04:31:26.357Z,6.83
2018-09-24T04:32:26.415Z,6.82
2018-09-24T04:33:26.471Z,6.73
2018-09-24T04:34:26.527Z,6.65
2018-09-24T04:35:26.583Z,6.71
2018-09-24T04:36:26.640Z,6.69
2018-09-24T04:37:26.695Z,6.69
2018-09-24T04:38:26.753Z,6.68
2018-09-24T04:39:26.826Z,6.72
2018-09-24T04:40:26.866Z,6.72
2018-09-24T04:41:26.923Z,6.69
2018-09-24T04:42:26.978Z,6.71
2018-09-24T04:43:27.375Z,6.75
2018-09-24T04:44:27.092Z,6.73
2018-09-24T04:45:27.149Z,6.71
2018-09-24T04:46:27.208Z,6.65
2018-09-24T04:47:27.262Z,6.69
2018-09-24T04:48:27.317Z,6.69
2018-09-24T04:49:27.375Z,6.76
2018-09-24T04:50:27.432Z,6.71
2018-09-24T04:51:27.486Z,6.73
2018-09-24T04:52:27.547Z,6.69
2018-09-24T04:53:27.600Z,6.65
2018-09-24T04:54:27.659Z,6.69
2018-09-24T04:55:27.712Z,6.63
2018-09-24T04:56:27.772Z,6.73
2018-09-24T04:57:27.827Z,6.69
2018-09-24T04:58:27.891Z,6.69
2018-09-24T04:59:27.941Z,6.78
2018-09-24T05:00:27.994Z,6.78
2018-09-24T05:01:28.053Z,6.89
2018-09-24T05:02:28.107Z,7.04
2018-09-24T05:03:28.164Z,7.01
2018-09-24T05:04:28.222Z,6.90
2018-09-24T05:05:28.277Z,7.04
2018-09-24T05:06:28.333Z,6.94
2018-09-24T05:07:28.390Z,7.04
2018-09-24T05:08:28.446Z,7.09
2018-09-24T05:09:28.505Z,7.09
2018-09-24T05:10:28.559Z,7.11
2018-09-24T05:11:28.616Z,7.04
2018-09-24T05:12:28.672Z,7.05
2018-09-24T05:13:28.728Z,7.11
2018-09-24T05:14:28.784Z,7.11
2018-09-24T05:15:28.840Z,7.05
2018-09-24T05:16:28.986Z,6.89
2018-09-24T05:17:28.955Z,6.91
2018-09-24T05:18:29.014Z,7.01
2018-09-24T05:19:29.069Z,7.07
2018-09-24T05:20:29.124Z,6.94
2018-09-24T05:21:29.183Z,6.93
2018-09-24T05:22:29.236Z,6.89
2018-09-24T05:23:29.292Z,6.78
2018-09-24T05:24:29.348Z,6.72
2018-09-24T05:25:29.407Z,6.58
2018-09-24T05:26:29.461Z,6.58
2018-09-24T05:27:29.609Z,6.60
2018-09-24T05:28:29.574Z,6.53
2018-09-24T05:29:30.363Z,6.53
2018-09-24T05:30:30.415Z,6.48
2018-09-24T05:31:30.602Z,6.48
2018-09-24T05:32:30.548Z,6.61
2018-09-24T05:33:30.389Z,6.45
2018-09-24T05:34:30.641Z,6.42
2018-09-24T05:35:30.629Z,6.55
2018-09-24T05:36:30.689Z,6.55
2018-09-24T05:37:30.695Z,6.46
2018-09-24T05:38:30.788Z,6.40
2018-09-24T05:39:30.947Z,6.51
2018-09-24T05:40:30.864Z,6.51
2018-09-24T05:41:31.025Z,6.51
2018-09-24T05:42:31.098Z,6.42
2018-09-24T05:43:31.022Z,6.43
2018-09-24T05:44:31.204Z,6.46
2018-09-24T05:45:31.387Z,6.55
2018-09-24T05:46:31.589Z,6.61
2018-09-24T05:47:31.362Z,6.54
2018-09-24T05:48:31.405Z,6.54
2018-09-24T05:49:31.356Z,6.58
2018-09-24T05:50:31.473Z,6.54
2018-09-24T05:51:31.599Z,6.54
2018-09-24T05:52:31.541Z,6.69
2018-09-24T05:53:31.675Z,6.68
2018-09-24T05:54:31.775Z,6.78
2018-09-24T05:55:31.097Z,6.89
2018-09-24T05:56:31.154Z,6.89
2018-09-24T05:57:31.209Z,6.99
2018-09-24T05:58:31.290Z,6.82
2018-09-24T05:59:31.323Z,6.91
2018-09-24T06:00:31.413Z,6.93
2018-09-24T06:01:31.436Z,7.00
2018-09-24T06:02:31.492Z,7.08
2018-09-24T06:03:31.551Z,7.09
2018-09-24T06:04:31.639Z,7.05
2018-09-24T06:05:31.663Z,7.08
2018-09-24T06:06:31.722Z,7.01
2018-09-24T06:07:31.777Z,7.09
2018-09-24T06:08:31.831Z,7.07
2018-09-24T06:09:31.888Z,7.09
2018-09-24T06:10:31.947Z,7.09
2018-09-24T06:11:32.001Z,6.99
2018-09-24T06:12:32.066Z,6.89
2018-09-24T06:13:32.186Z,6.94
2018-09-24T06:14:32.169Z,6.94
2018-09-24T06:15:32.226Z,6.89
2018-09-24T06:16:33.206Z,6.91
2018-09-24T06:17:32.340Z,7.05
2018-09-24T06:18:32.395Z,7.04
2018-09-24T06:19:32.451Z,7.08
2018-09-24T06:20:32.508Z,7.05
2018-09-24T06:21:32.568Z,7.18
2018-09-24T06:22:32.624Z,7.05
2018-09-24T06:23:32.680Z,7.21
2018-09-24T06:24:32.734Z,7.27
2018-09-24T06:25:32.807Z,7.36
2018-09-24T06:26:32.847Z,7.32
2018-09-24T06:27:32.909Z,7.26
2018-09-24T06:28:33.036Z,7.27
2018-09-24T06:29:33.018Z,7.16
2018-09-24T06:30:33.074Z,7.07
2018-09-24T06:31:33.137Z,7.11
2018-09-24T06:32:33.187Z,7.11
2018-09-24T06:33:33.244Z,7.08
2018-09-24T06:34:33.300Z,7.08
2018-09-24T06:35:33.359Z,7.14
2018-09-24T06:36:33.414Z,7.09
2018-09-24T06:37:33.472Z,7.07
2018-09-24T06:38:33.527Z,7.19
2018-09-24T06:39:33.585Z,7.09
2018-09-24T06:40:33.642Z,7.05
2018-09-24T06:41:33.701Z,7.18
2018-09-24T06:42:33.753Z,7.32
2018-09-24T06:43:34.500Z,7.32
2018-09-24T06:44:33.867Z,7.48
2018-09-24T06:45:33.924Z,7.60
2018-09-24T06:46:33.980Z,7.67
2018-09-24T06:47:34.036Z,7.76
2018-09-24T06:48:34.095Z,7.79
2018-09-24T06:49:34.158Z,7.81
2018-09-24T06:50:34.207Z,7.79
2018-09-24T06:51:34.264Z,7.84
2018-09-24T06:52:34.470Z,7.92
2018-09-24T06:53:34.378Z,7.94
2018-09-24T06:54:34.434Z,8.00
2018-09-24T06:55:34.492Z,8.03
2018-09-24T06:56:34.550Z,8.03
2018-09-24T06:57:34.967Z,8.14
2018-09-24T06:58:34.661Z,8.22
2018-09-24T06:59:34.762Z,8.18
2018-09-24T07:00:34.777Z,8.27
2018-09-24T07:01:34.833Z,8.22
2018-09-24T07:02:34.889Z,8.32
2018-09-24T07:03:34.947Z,8.42
2018-09-24T07:04:35.004Z,8.37
2018-09-24T07:05:35.163Z,8.34
2018-09-24T07:06:35.117Z,8.34
2018-09-24T07:07:35.174Z,8.50
2018-09-24T07:08:35.233Z,8.55
2018-09-24T07:09:35.289Z,8.60
2018-09-24T07:10:35.351Z,8.71
2018-09-24T07:11:35.403Z,8.78
2018-09-24T07:12:35.460Z,8.89
2018-09-24T07:13:35.517Z,8.89
2018-09-24T07:14:35.572Z,8.88
2018-09-24T07:15:35.632Z,8.78
2018-09-24T07:16:35.688Z,8.88
2018-09-24T07:17:35.747Z,8.94
2018-09-24T07:18:35.803Z,8.96
2018-09-24T07:19:35.860Z,9.06
2018-09-24T07:20:35.923Z,9.03
2018-09-24T07:21:36.378Z,9.03
2018-09-24T07:22:36.032Z,9.19
2018-09-24T07:23:36.090Z,9.16
2018-09-24T07:24:36.149Z,9.16
2018-09-24T07:25:36.529Z,9.16
2018-09-24T07:26:36.261Z,9.08
2018-09-24T07:27:36.364Z,9.17
2018-09-24T07:28:36.377Z,9.26
2018-09-24T07:29:36.435Z,9.30
2018-09-24T07:30:36.527Z,9.32
2018-09-24T07:31:36.590Z,9.52
2018-09-24T07:32:36.607Z,9.65
2018-09-24T07:33:36.665Z,9.75
2018-09-24T07:34:37.031Z,9.68
2018-09-24T07:35:36.779Z,9.70
2018-09-24T07:36:36.871Z,9.63
2018-09-24T07:37:36.895Z,9.71
2018-09-24T07:38:36.983Z,9.86
2018-09-24T07:39:37.045Z,9.95
2018-09-24T07:40:37.102Z,10.01
2018-09-24T07:41:37.129Z,10.06
2018-09-24T07:42:37.223Z,10.06
2018-09-24T07:43:37.369Z,10.11
2018-09-24T07:44:37.332Z,10.18
2018-09-24T07:45:37.389Z,10.28
2018-09-24T07:46:37.449Z,10.36
2018-09-24T07:47:37.473Z,10.49
2018-09-24T07:48:37.535Z,10.46
2018-09-24T07:49:37.589Z,10.49
2018-09-24T07:50:37.648Z,10.62
2018-09-24T07:51:37.705Z,10.76
2018-09-24T07:52:37.763Z,10.80
2018-09-24T07:53:37.826Z,10.95
2018-09-24T07:54:37.881Z,10.86
2018-09-24T07:55:38.013Z,11.02
2018-09-24T07:56:38.001Z,10.99
2018-09-24T07:57:38.057Z,11.08
2018-09-24T07:58:38.111Z,11.16
2018-09-24T07:59:38.168Z,11.17
2018-09-24T08:00:38.227Z,11.24
2018-09-24T08:01:38.340Z,11.31
2018-09-24T08:02:38.343Z,11.38
2018-09-24T08:03:38.402Z,11.45
2018-09-24T08:04:38.467Z,11.48
2018-09-24T08:05:38.522Z,11.59
2018-09-24T08:06:38.577Z,11.69
2018-09-24T08:07:38.695Z,11.70
2018-09-24T08:08:38.694Z,11.82
2018-09-24T08:09:38.760Z,11.78
2018-09-24T08:10:39.160Z,11.84
2018-09-24T08:11:38.868Z,11.93
2018-09-24T08:12:38.929Z,12.05
2018-09-24T08:13:39.459Z,12.12
2018-09-24T08:14:39.425Z,12.33
2018-09-24T08:15:39.104Z,12.37
2018-09-24T08:16:39.163Z,12.40
2018-09-24T08:17:39.579Z,12.51
2018-09-24T08:18:39.278Z,12.48
2018-09-24T08:19:39.337Z,12.49
2018-09-24T08:20:39.403Z,12.61
2018-09-24T08:21:39.877Z,12.62
2018-09-24T08:22:39.515Z,12.77
2018-09-24T08:23:39.823Z,12.62
2018-09-24T08:24:39.633Z,12.69
2018-09-24T08:25:39.692Z,12.70
2018-09-24T08:26:39.747Z,12.81
2018-09-24T08:27:39.810Z,12.88
2018-09-24T08:28:39.866Z,12.95
2018-09-24T08:29:39.927Z,13.09
2018-09-24T08:30:39.984Z,13.14
2018-09-24T08:31:40.397Z,13.29
2018-09-24T08:32:40.103Z,13.32
2018-09-24T08:33:40.162Z,13.28
2018-09-24T08:34:40.220Z,13.35
2018-09-24T08:35:41.084Z,13.53
2018-09-24T08:36:40.342Z,13.50
2018-09-24T08:37:40.399Z,13.35
2018-09-24T08:38:40.460Z,13.57
2018-09-24T08:39:40.516Z,13.55
2018-09-24T08:40:40.581Z,13.51
2018-09-24T08:41:40.635Z,13.38
2018-09-24T08:42:40.694Z,13.29
2018-09-24T08:43:41.257Z,13.29
2018-09-24T08:44:40.817Z,13.27
2018-09-24T08:45:40.978Z,13.35
2018-09-24T08:46:40.933Z,13.44
2018-09-24T08:47:40.992Z,13.51
2018-09-24T08:48:41.052Z,13.63
2018-09-24T08:49:41.152Z,13.80
2018-09-24T08:50:41.176Z,13.69
2018-09-24T08:51:41.228Z,13.65
2018-09-24T08:52:41.291Z,13.71
2018-09-24T08:53:41.348Z,13.90
2018-09-24T08:54:41.419Z,13.86
2018-09-24T08:55:41.469Z,13.79
2018-09-24T08:56:41.536Z,13.81
2018-09-24T08:57:41.896Z,13.76
2018-09-24T08:58:41.975Z,13.86
2018-09-24T08:59:41.706Z,13.93
2018-09-24T09:00:41.784Z,13.88
2018-09-24T09:01:41.826Z,13.88
2018-09-24T09:02:41.951Z,13.87
2018-09-24T09:03:41.943Z,13.93
2018-09-24T09:04:42.004Z,13.87
2018-09-24T09:05:42.372Z,14.02
2018-09-24T09:06:42.123Z,13.99
2018-09-24T09:07:42.180Z,14.16
2018-09-24T09:08:42.243Z,14.13
2018-09-24T09:09:42.928Z,13.96
2018-09-24T09:10:42.359Z,13.99
2018-09-24T09:11:42.420Z,14.06
2018-09-24T09:12:42.480Z,14.16
2018-09-24T09:13:42.545Z,14.30
2018-09-24T09:14:42.599Z,14.41
2018-09-24T09:15:42.969Z,14.57
2018-09-24T09:16:42.717Z,14.61
2018-09-24T09:17:42.779Z,14.53
2018-09-24T09:18:42.839Z,14.57
2018-09-24T09:19:42.898Z,14.61
2018-09-24T09:20:42.959Z,14.72
2018-09-24T09:21:43.018Z,14.63
2018-09-24T09:22:43.078Z,14.64
2018-09-24T09:23:43.137Z,14.61
2018-09-24T09:24:43.198Z,14.63
2018-09-24T09:25:43.259Z,14.75
2018-09-24T09:26:43.753Z,14.83
2018-09-24T09:27:43.378Z,14.98
2018-09-24T09:28:43.483Z,15.07
2018-09-24T09:29:43.503Z,14.98
2018-09-24T09:30:43.558Z,14.98
2018-09-24T09:31:43.619Z,14.95
2018-09-24T09:32:43.680Z,14.83
2018-09-24T09:33:43.740Z,14.87
2018-09-24T09:34:43.800Z,15.07
2018-09-24T09:35:43.871Z,15.31
2018-09-24T09:36:43.921Z,15.38
2018-09-24T09:37:43.982Z,15.48
2018-09-24T09:38:44.043Z,15.43
2018-09-24T09:39:44.117Z,15.43
2018-09-24T09:40:44.164Z,15.34
2018-09-24T09:41:44.234Z,15.25
2018-09-24T09:42:44.295Z,15.22
2018-09-24T09:43:44.347Z,15.28
2018-09-24T09:44:44.409Z,15.23
2018-09-24T09:45:44.469Z,15.37
2018-09-24T09:46:44.555Z,15.18
2018-09-24T09:47:44.591Z,15.05
2018-09-24T09:48:44.668Z,14.91
2018-09-24T09:49:44.714Z,14.83
2018-09-24T09:50:44.773Z,14.80
2018-09-24T09:51:45.420Z,14.66
2018-09-24T09:52:44.897Z,14.71
2018-09-24T09:53:45.076Z,14.78
2018-09-24T09:54:45.020Z,14.80
2018-09-24T09:55:45.080Z,14.79
2018-09-24T09:56:45.142Z,14.78
2018-09-24T09:57:45.202Z,14.93
2018-09-24T09:58:45.265Z,15.07
2018-09-24T09:59:45.351Z,15.13
2018-09-24T10:00:45.386Z,15.22
2018-09-24T10:01:45.446Z,15.34
2018-09-24T10:02:45.506Z,15.48
2018-09-24T10:03:45.568Z,15.33
2018-09-24T10:04:45.667Z,15.51
2018-09-24T10:05:45.691Z,15.68
2018-09-24T10:06:45.750Z,15.53
2018-09-24T10:07:45.811Z,15.60
2018-09-24T10:08:45.873Z,15.60
2018-09-24T10:09:45.935Z,15.67
2018-09-24T10:10:45.994Z,15.96
2018-09-24T10:11:46.055Z,15.88
2018-09-24T10:12:46.116Z,16.03
2018-09-24T10:13:46.178Z,16.25
2018-09-24T10:14:46.237Z,16.26
2018-09-24T10:15:46.309Z,16.03
2018-09-24T10:16:46.362Z,15.88
2018-09-24T10:17:46.424Z,15.68
2018-09-24T10:18:46.486Z,15.38
2018-09-24T10:19:46.545Z,15.27
2018-09-24T10:20:46.606Z,15.09
2018-09-24T10:21:46.668Z,15.22
2018-09-24T10:22:46.809Z,15.30
2018-09-24T10:23:46.789Z,15.41
2018-09-24T10:24:46.851Z,15.48
2018-09-24T10:25:46.913Z,15.37
2018-09-24T10:26:46.973Z,15.30
2018-09-24T10:27:47.034Z,15.27
2018-09-24T10:28:47.096Z,15.31
2018-09-24T10:29:47.157Z,15.34
2018-09-24T10:30:47.218Z,15.34
2018-09-24T10:31:47.279Z,15.37
2018-09-24T10:32:47.343Z,15.37
2018-09-24T10:33:47.462Z,15.48
2018-09-24T10:34:47.462Z,15.43
2018-09-24T10:35:47.524Z,15.53
2018-09-24T10:36:47.585Z,15.66
2018-09-24T10:37:47.646Z,15.88
2018-09-24T10:38:47.707Z,15.89
2018-09-24T10:39:47.840Z,16.07
2018-09-24T10:40:47.829Z,16.27
2018-09-24T10:41:47.890Z,16.52
2018-09-24T10:42:47.951Z,16.72
2018-09-24T10:43:48.011Z,16.95
2018-09-24T10:44:48.073Z,16.95
2018-09-24T10:45:48.139Z,17.09
2018-09-24T10:46:48.196Z,17.05
2018-09-24T10:47:48.258Z,16.90
2018-09-24T10:48:48.319Z,16.66
2018-09-24T10:49:48.381Z,16.73
2018-09-24T10:50:48.442Z,16.60
2018-09-24T10:51:48.507Z,16.55
2018-09-24T10:52:48.654Z,16.55
2018-09-24T10:53:48.630Z,16.37
2018-09-24T10:54:48.695Z,16.26
2018-09-24T10:55:48.761Z,15.93
2018-09-24T10:56:48.815Z,15.80
2018-09-24T10:57:48.876Z,15.81
2018-09-24T10:58:48.955Z,15.81
2018-09-24T10:59:49.000Z,15.59
2018-09-24T11:00:49.062Z,16.85
2018-09-24T11:01:49.125Z,17.47
2018-09-24T11:02:49.185Z,18.76
2018-09-24T11:03:49.248Z,19.31
2018-09-24T11:04:49.363Z,18.17
2018-09-24T11:05:49.375Z,17.35
2018-09-24T11:06:49.434Z,17.58
2018-09-24T11:07:49.496Z,17.33
2018-09-24T11:08:49.560Z,17.03
2018-09-24T11:09:49.665Z,16.80
2018-09-24T11:10:49.685Z,17.60
2018-09-24T11:11:49.748Z,17.15
2018-09-24T11:12:49.809Z,16.88
2018-09-24T11:13:49.872Z,16.65
2018-09-24T11:14:49.943Z,16.63
2018-09-24T11:15:50.095Z,16.36
2018-09-24T11:16:50.113Z,16.18
2018-09-24T11:17:50.446Z,17.51
2018-09-24T11:18:50.185Z,18.79
2018-09-24T11:19:50.251Z,19.24
2018-09-24T11:20:50.312Z,19.70
2018-09-24T11:21:50.374Z,19.57
2018-09-24T11:22:50.437Z,20.33
2018-09-24T11:23:50.498Z,20.63
2018-09-24T11:24:50.560Z,20.26
2018-09-24T11:25:50.624Z,20.50
2018-09-24T11:26:50.688Z,20.22
2018-09-24T11:27:50.755Z,19.90
2018-09-24T11:28:50.815Z,19.35
2018-09-24T11:29:50.882Z,18.10
2018-09-24T11:30:50.942Z,17.39
2018-09-24T11:31:51.009Z,17.25
2018-09-24T11:32:51.074Z,16.95
2018-09-24T11:33:51.138Z,16.82
2018-09-24T11:34:51.201Z,16.90
2018-09-24T11:35:51.268Z,16.99
2018-09-24T11:36:51.330Z,17.00
2018-09-24T11:37:51.395Z,17.02
2018-09-24T11:38:51.457Z,16.98
2018-09-24T11:39:51.520Z,17.09
2018-09-24T11:40:51.584Z,16.92
2018-09-24T11:41:51.648Z,16.95
2018-09-24T11:42:51.712Z,16.96
2018-09-24T11:43:52.386Z,16.95
2018-09-24T11:44:51.841Z,16.88
2018-09-24T11:45:51.903Z,16.73
2018-09-24T11:46:52.092Z,16.96
2018-09-24T11:47:52.029Z,17.28
2018-09-24T11:48:52.094Z,17.53
2018-09-24T11:49:52.156Z,17.58
2018-09-24T11:50:52.219Z,17.60
2018-09-24T11:51:52.283Z,17.57
2018-09-24T11:52:52.346Z,17.62
2018-09-24T11:53:52.411Z,17.81
2018-09-24T11:54:52.472Z,17.47
2018-09-24T11:55:52.538Z,17.38
2018-09-24T11:56:52.600Z,17.33
2018-09-24T11:57:52.665Z,17.54
2018-09-24T11:58:52.728Z,17.46
2018-09-24T11:59:52.790Z,18.28
2018-09-24T12:00:52.855Z,17.83
2018-09-24T12:01:53.516Z,17.63
2018-09-24T12:02:52.980Z,17.68
2018-09-24T12:03:53.045Z,17.63
2018-09-24T12:04:53.108Z,17.58
2018-09-24T12:05:53.174Z,17.68
2018-09-24T12:06:53.234Z,17.49
2018-09-24T12:07:53.315Z,17.57
2018-09-24T12:08:53.362Z,17.73
2018-09-24T12:09:53.425Z,17.89
2018-09-24T12:10:53.490Z,17.87
2018-09-24T12:11:53.554Z,17.58
2018-09-24T12:12:53.638Z,17.18
2018-09-24T12:13:53.681Z,17.30
2018-09-24T12:14:53.743Z,17.07
2018-09-24T12:15:53.807Z,17.00
2018-09-24T12:16:53.871Z,17.05
2018-09-24T12:17:53.936Z,16.78
2018-09-24T12:18:54.005Z,16.45
2018-09-24T12:19:54.063Z,16.47
2018-09-24T12:20:54.128Z,16.42
2018-09-24T12:21:54.190Z,16.33
2018-09-24T12:22:54.253Z,16.22
2018-09-24T12:23:54.314Z,16.08
2018-09-24T12:24:54.384Z,15.92
2018-09-24T12:25:54.442Z,15.96
2018-09-24T12:26:54.504Z,16.18
2018-09-24T12:27:54.570Z,16.34
2018-09-24T12:28:54.633Z,16.41
2018-09-24T12:29:54.692Z,16.52
2018-09-24T12:30:54.755Z,17.43
2018-09-24T12:31:55.452Z,17.35
2018-09-24T12:32:54.880Z,17.81
2018-09-24T12:33:54.943Z,18.78
2018-09-24T12:34:55.706Z,19.16
2018-09-24T12:35:55.068Z,18.78
2018-09-24T12:36:55.479Z,18.56
2018-09-24T12:37:55.193Z,18.94
2018-09-24T12:38:55.257Z,19.42
2018-09-24T12:39:55.318Z,20.15
2018-09-24T12:40:55.382Z,20.01
2018-09-24T12:41:55.446Z,19.24
2018-09-24T12:42:55.507Z,19.85
2018-09-24T12:43:55.572Z,20.63
2018-09-24T12:44:55.635Z,20.51
2018-09-24T12:45:55.699Z,20.31
2018-09-24T12:46:55.762Z,20.25
2018-09-24T12:47:55.845Z,19.05
2018-09-24T12:48:55.895Z,19.35
2018-09-24T12:49:56.635Z,19.40
2018-09-24T12:50:56.019Z,19.32
2018-09-24T12:51:56.084Z,19.39
2018-09-24T12:52:56.147Z,19.90
2018-09-24T12:53:56.214Z,19.21
2018-09-24T12:54:56.277Z,19.68
2018-09-24T12:55:56.342Z,20.20
2018-09-24T12:56:57.113Z,20.81
2018-09-24T12:57:57.253Z,21.61
2018-09-24T12:58:57.263Z,21.40
2018-09-24T12:59:56.610Z,21.26
2018-09-24T13:00:56.667Z,21.38
2018-09-24T13:01:56.733Z,21.13
2018-09-24T13:02:56.804Z,21.08
2018-09-24T13:03:56.864Z,21.73
2018-09-24T13:04:56.932Z,21.15
2018-09-24T13:05:57.043Z,20.57
2018-09-24T13:06:57.060Z,20.31
2018-09-24T13:07:57.127Z,19.38